Time;durP1;ratioP1;P1;durP2;ratioP2;P2;SDS_P1;SDS_P2;PMS_P1;PMS_P2;Temp;Humidity;BMP_temperature;BMP_pressure;BME280_temperature;BME280_humidity;BME280_pressure;Samples;Min_cycle;Max_cycle;Signal;HPM_P1;HPM_P2
2022/03/03 00:00:44;;;;;;;100.33;51.10;;;-0.50;91.70;;;;;;6278737;22;20455;-91
2022/03/03 00:03:10;;;;;;;100.03;50.30;;;-0.50;91.80;;;;;;6282141;22;20167;-91
2022/03/03 00:05:35;;;;;;;94.17;50.23;;;-0.40;91.90;;;;;;6279628;22;20171;-92
2022/03/03 00:08:01;;;;;;;100.90;51.83;;;-0.40;92.00;;;;;;6277643;22;20155;-90
2022/03/03 00:10:27;;;;;;;98.73;53.17;;;-0.40;92.00;;;;;;6277818;22;20625;-90
2022/03/03 00:12:52;;;;;;;104.90;53.93;;;-0.30;92.10;;;;;;6277585;22;20171;-90
2022/03/03 00:15:18;;;;;;;94.87;49.87;;;-0.30;92.10;;;;;;6279654;22;20147;-91
2022/03/03 00:17:43;;;;;;;96.13;52.73;;;-0.40;92.10;;;;;;6277571;22;20154;-92
2022/03/03 00:20:09;;;;;;;91.70;50.10;;;-0.50;92.10;;;;;;6277119;22;20157;-91
2022/03/03 00:22:35;;;;;;;89.83;47.57;;;-0.50;92.00;;;;;;6277181;22;20204;-91
2022/03/03 00:25:01;;;;;;;92.27;51.17;;;-0.60;92.00;;;;;;6277696;22;20154;-91
2022/03/03 00:27:26;;;;;;;98.80;50.50;;;-0.60;92.00;;;;;;6277790;22;20640;-92
2022/03/03 00:29:52;;;;;;;96.33;51.50;;;-0.60;92.10;;;;;;6277454;22;20507;-90
2022/03/03 00:32:18;;;;;;;103.80;49.33;;;-0.60;92.10;;;;;;6278923;22;20167;-91
2022/03/03 00:34:44;;;;;;;98.97;49.30;;;-0.60;92.10;;;;;;6277931;22;20151;-90
2022/03/03 00:37:09;;;;;;;93.77;47.50;;;-0.60;92.20;;;;;;6277558;22;20593;-91
2022/03/03 00:39:35;;;;;;;91.00;49.23;;;-0.80;92.10;;;;;;6277887;22;20162;-91
2022/03/03 00:42:00;;;;;;;101.50;47.77;;;-0.80;92.10;;;;;;6277600;22;20557;-91
2022/03/03 00:44:26;;;;;;;103.53;49.03;;;-0.90;92.20;;;;;;6277611;22;20181;-91
2022/03/03 00:46:52;;;;;;;90.63;48.87;;;-0.80;92.30;;;;;;6277282;22;20276;-90
2022/03/03 00:49:17;;;;;;;98.23;50.23;;;-0.80;92.40;;;;;;6276969;22;20293;-90
2022/03/03 00:51:43;;;;;;;91.37;47.27;;;-0.80;92.50;;;;;;6276557;22;20174;-90
2022/03/03 00:54:08;;;;;;;94.23;51.67;;;-0.70;92.60;;;;;;6276833;22;20165;-90
2022/03/03 00:56:34;;;;;;;99.37;52.07;;;-0.80;92.60;;;;;;6277081;22;20149;-90
2022/03/03 00:58:59;;;;;;;104.03;52.50;;;-0.70;92.70;;;;;;6276903;22;20597;-90
2022/03/03 01:01:25;;;;;;;104.63;54.60;;;-0.80;92.70;;;;;;6276561;22;20178;-90
2022/03/03 01:03:51;;;;;;;109.47;54.77;;;-0.80;92.70;;;;;;6276925;22;20168;-91
2022/03/03 01:06:16;;;;;;;110.87;54.50;;;-0.70;92.80;;;;;;6276806;22;20223;-91
2022/03/03 01:08:42;;;;;;;102.07;52.93;;;-0.80;92.80;;;;;;6277454;22;20231;-91
2022/03/03 01:11:09;;;;;;;99.20;52.73;;;-0.80;92.80;;;;;;6277269;22;20189;-91
2022/03/03 01:13:35;;;;;;;92.30;49.37;;;-0.70;92.80;;;;;;6277988;22;20153;-90
2022/03/03 01:16:01;;;;;;;100.50;53.70;;;-0.80;92.80;;;;;;6276580;22;20155;-90
2022/03/03 01:18:26;;;;;;;95.17;49.73;;;-0.80;92.80;;;;;;6278103;22;20153;-90
2022/03/03 01:20:54;;;;;;;99.23;51.23;;;-0.80;92.80;;;;;;6277402;22;20154;-89
2022/03/03 01:23:20;;;;;;;109.37;52.83;;;-0.80;92.80;;;;;;6279909;22;20487;-89
2022/03/03 01:25:46;;;;;;;99.07;51.40;;;-0.80;92.80;;;;;;6277085;22;20599;-91
2022/03/03 01:28:12;;;;;;;111.73;53.90;;;-0.90;92.70;;;;;;6277721;22;20186;-91
2022/03/03 01:30:37;;;;;;;102.83;51.10;;;-1.00;92.70;;;;;;6276883;22;20154;-91
2022/03/03 01:33:03;;;;;;;99.37;50.57;;;-1.00;92.80;;;;;;6280540;22;20166;-90
2022/03/03 01:35:29;;;;;;;103.93;52.77;;;-1.10;92.80;;;;;;6276903;22;20204;-90
2022/03/03 01:37:54;;;;;;;109.10;51.93;;;-1.10;92.80;;;;;;6276746;22;20157;-90
2022/03/03 01:40:22;;;;;;;113.97;54.73;;;-1.20;92.80;;;;;;6276975;22;20585;-90
2022/03/03 01:42:49;;;;;;;139.73;53.80;;;-1.20;92.90;;;;;;6276159;22;20225;-90
2022/03/03 01:45:15;;;;;;;290.07;54.97;;;-1.20;92.90;;;;;;6276667;22;20161;-90
2022/03/03 01:47:41;;;;;;;390.20;52.70;;;-1.30;92.90;;;;;;6276627;22;20154;-91
2022/03/03 01:50:07;;;;;;;256.67;49.03;;;-1.30;93.00;;;;;;6278031;22;20550;-91
2022/03/03 01:52:33;;;;;;;271.73;48.70;;;-1.30;93.10;;;;;;6276436;22;20195;-91
2022/03/03 01:54:59;;;;;;;231.17;44.13;;;-1.20;93.10;;;;;;6277885;22;20162;-90
2022/03/03 01:57:25;;;;;;;245.43;49.93;;;-1.20;93.20;;;;;;6276632;22;20156;-90
2022/03/03 01:59:50;;;;;;;336.47;52.80;;;-1.20;93.30;;;;;;6276770;22;20189;-90
2022/03/03 02:02:16;;;;;;;308.87;48.13;;;-1.20;93.40;;;;;;6276135;22;20184;-89
2022/03/03 02:04:42;;;;;;;346.47;47.50;;;-1.20;93.50;;;;;;6276079;22;20170;-90
2022/03/03 02:07:09;;;;;;;273.17;50.37;;;-1.20;93.50;;;;;;6277633;22;20180;-90
2022/03/03 02:09:35;;;;;;;303.33;51.23;;;-1.20;93.60;;;;;;6277765;22;20626;-90
2022/03/03 02:12:01;;;;;;;301.60;50.17;;;-1.20;93.70;;;;;;6276602;22;20191;-90
2022/03/03 02:14:27;;;;;;;339.60;53.20;;;-1.20;93.70;;;;;;6276629;22;20153;-90
2022/03/03 02:16:53;;;;;;;303.60;50.93;;;-1.20;93.70;;;;;;6276207;22;20165;-90
2022/03/03 02:19:20;;;;;;;316.93;44.87;;;-1.20;93.80;;;;;;6276005;22;20213;-90
2022/03/03 02:21:51;;;;;;;384.80;52.00;;;-1.20;93.90;;;;;;6276653;22;20191;-90
2022/03/03 02:24:18;;;;;;;364.43;49.03;;;-1.30;93.90;;;;;;6276589;22;20643;-91
2022/03/03 02:26:44;;;;;;;294.20;45.67;;;-1.30;93.90;;;;;;6276083;22;20157;-90
2022/03/03 02:29:10;;;;;;;267.77;44.70;;;-1.40;93.90;;;;;;6276182;22;20242;-90
2022/03/03 02:31:36;;;;;;;215.17;45.87;;;-1.40;94.00;;;;;;6276690;22;20180;-90
2022/03/03 02:34:02;;;;;;;309.37;50.10;;;-1.40;94.10;;;;;;6276102;22;20147;-90
2022/03/03 02:36:28;;;;;;;249.43;46.90;;;-1.40;94.10;;;;;;6277915;22;20141;-90
2022/03/03 02:38:56;;;;;;;273.87;48.73;;;-1.40;94.10;;;;;;6276269;22;20179;-90
2022/03/03 02:41:23;;;;;;;184.47;43.60;;;-1.50;94.20;;;;;;6276048;22;20180;-90
2022/03/03 02:43:49;;;;;;;191.57;44.90;;;-1.60;94.20;;;;;;6276694;22;20163;-90
2022/03/03 02:46:15;;;;;;;209.40;47.20;;;-1.60;94.30;;;;;;6276141;22;20496;-90
2022/03/03 02:48:40;;;;;;;221.83;46.97;;;-1.60;94.30;;;;;;6275781;22;20180;-91
2022/03/03 02:51:07;;;;;;;230.17;46.60;;;-1.60;94.30;;;;;;6276272;22;20185;-90
2022/03/03 02:53:32;;;;;;;274.63;50.10;;;-1.70;94.30;;;;;;6275839;22;20164;-90
2022/03/03 02:55:58;;;;;;;243.53;45.73;;;-1.70;94.30;;;;;;6276006;22;20591;-91
2022/03/03 02:58:24;;;;;;;196.40;44.83;;;-1.70;94.30;;;;;;6276606;22;20165;-91
2022/03/03 03:00:50;;;;;;;158.97;44.47;;;-1.80;94.30;;;;;;6276334;22;20157;-91
2022/03/03 03:03:17;;;;;;;159.33;44.30;;;-1.80;94.30;;;;;;6276624;22;20156;-90
2022/03/03 03:05:43;;;;;;;194.17;45.90;;;-1.80;94.40;;;;;;6276753;22;20274;-91
2022/03/03 03:08:10;;;;;;;166.03;44.77;;;-1.80;94.40;;;;;;6276038;22;20589;-91
2022/03/03 03:10:36;;;;;;;229.17;47.63;;;-1.80;94.40;;;;;;6278042;22;20600;-91
2022/03/03 03:13:02;;;;;;;235.07;45.13;;;-1.80;94.40;;;;;;6277823;22;20172;-91
2022/03/03 03:15:28;;;;;;;163.27;44.23;;;-1.80;94.50;;;;;;6276387;22;20160;-91
2022/03/03 03:17:54;;;;;;;260.63;47.60;;;-1.90;94.50;;;;;;6276661;22;20298;-91
2022/03/03 03:20:20;;;;;;;303.07;48.77;;;-1.90;94.50;;;;;;6276099;22;20154;-91
2022/03/03 03:22:46;;;;;;;277.63;47.70;;;-1.80;94.60;;;;;;6278226;22;20170;-91
2022/03/03 03:25:13;;;;;;;215.73;42.37;;;-1.90;94.50;;;;;;6276182;22;20152;-91
2022/03/03 03:27:41;;;;;;;281.13;46.00;;;-1.80;94.60;;;;;;6276572;22;20148;-91
2022/03/03 03:30:09;;;;;;;197.53;41.63;;;-1.90;94.60;;;;;;6276923;22;20180;-91
2022/03/03 03:32:36;;;;;;;183.80;42.30;;;-1.90;94.60;;;;;;6278265;22;20164;-91
2022/03/03 03:35:04;;;;;;;187.53;42.47;;;-1.90;94.60;;;;;;6278208;22;20152;-91
2022/03/03 03:37:29;;;;;;;218.13;48.80;;;-1.90;94.70;;;;;;6276669;22;20535;-91
2022/03/03 03:39:56;;;;;;;194.70;44.73;;;-1.90;94.70;;;;;;6277879;22;20165;-90
2022/03/03 03:42:22;;;;;;;177.00;44.23;;;-1.90;94.70;;;;;;6276494;22;20182;-90
2022/03/03 03:44:47;;;;;;;198.07;43.00;;;-1.90;94.70;;;;;;6276669;22;20205;-90
2022/03/03 03:47:13;;;;;;;117.57;37.17;;;-1.90;94.70;;;;;;6278183;22;20179;-90
2022/03/03 03:49:39;;;;;;;177.87;39.17;;;-1.90;94.70;;;;;;6277841;22;20198;-90
2022/03/03 03:52:05;;;;;;;126.70;37.03;;;-2.00;94.70;;;;;;6276937;22;20171;-90
2022/03/03 03:54:31;;;;;;;155.80;40.33;;;-2.00;94.70;;;;;;6276794;22;20214;-91
2022/03/03 03:56:56;;;;;;;170.03;44.23;;;-2.00;94.70;;;;;;6276245;22;20232;-90
2022/03/03 03:59:22;;;;;;;193.33;42.03;;;-2.00;94.80;;;;;;6278636;22;20156;-90
2022/03/03 04:01:48;;;;;;;331.83;52.87;;;-2.00;94.80;;;;;;6277323;22;20182;-91
2022/03/03 04:04:13;;;;;;;425.23;53.10;;;-2.10;94.80;;;;;;6277398;22;20602;-90
2022/03/03 04:06:40;;;;;;;255.17;46.27;;;-2.10;94.80;;;;;;6278697;22;20163;-90
2022/03/03 04:09:06;;;;;;;287.30;44.90;;;-2.10;94.80;;;;;;6277735;22;20232;-91
2022/03/03 04:11:31;;;;;;;451.37;52.83;;;-2.10;94.80;;;;;;6277476;22;20524;-91
2022/03/03 04:13:57;;;;;;;341.80;48.87;;;-2.10;94.80;;;;;;6278868;22;20153;-91
2022/03/03 04:16:24;;;;;;;239.53;43.50;;;-2.10;94.80;;;;;;6279313;22;20148;-90
2022/03/03 04:18:49;;;;;;;439.60;49.90;;;-2.10;94.80;;;;;;6277322;22;20155;-90
2022/03/03 04:21:15;;;;;;;151.37;44.33;;;-2.10;94.80;;;;;;6278122;22;20183;-91
2022/03/03 04:23:41;;;;;;;148.23;42.90;;;-2.10;94.80;;;;;;6279149;22;20155;-90
2022/03/03 04:26:06;;;;;;;206.53;44.47;;;-2.00;94.90;;;;;;6276625;22;20163;-89
2022/03/03 04:28:32;;;;;;;73.97;44.80;;;-1.90;94.90;;;;;;6276643;22;20213;-89
2022/03/03 04:30:57;;;;;;;324.27;48.63;;;-1.80;94.90;;;;;;6276712;22;20155;-89
2022/03/03 04:33:23;;;;;;;208.90;42.27;;;-1.70;95.00;;;;;;6278696;22;20144;-89
2022/03/03 04:35:49;;;;;;;260.27;43.47;;;-1.90;94.90;;;;;;6278522;22;20231;-89
2022/03/03 04:38:14;;;;;;;280.23;42.93;;;-2.00;94.90;;;;;;6276953;22;20148;-89
2022/03/03 04:40:40;;;;;;;245.23;42.70;;;-2.10;94.80;;;;;;6276642;22;20187;-90
2022/03/03 04:43:05;;;;;;;152.83;35.30;;;-2.10;94.80;;;;;;6277239;22;20261;-89
2022/03/03 04:45:31;;;;;;;277.03;43.27;;;-2.20;94.80;;;;;;6276646;22;20158;-89
2022/03/03 04:47:57;;;;;;;290.70;43.60;;;-2.20;94.90;;;;;;6276755;22;20162;-90
2022/03/03 04:50:23;;;;;;;379.90;48.23;;;-2.20;94.90;;;;;;6278058;22;20151;-89
2022/03/03 04:52:48;;;;;;;395.80;50.03;;;-2.10;94.90;;;;;;6277067;22;20171;-90
2022/03/03 04:55:14;;;;;;;478.10;52.37;;;-2.10;94.90;;;;;;6276669;22;20153;-90
2022/03/03 04:57:39;;;;;;;391.57;50.33;;;-2.10;94.90;;;;;;6276451;22;20155;-91
2022/03/03 05:00:06;;;;;;;268.60;43.93;;;-2.00;94.90;;;;;;6276512;22;20157;-89
2022/03/03 05:02:32;;;;;;;220.20;40.53;;;-1.90;95.00;;;;;;6276506;22;20227;-90
2022/03/03 05:04:57;;;;;;;182.17;39.70;;;-2.00;95.00;;;;;;6276959;22;20212;-90
2022/03/03 05:07:23;;;;;;;269.20;45.43;;;-2.00;94.90;;;;;;6278594;22;20158;-89
2022/03/03 05:09:48;;;;;;;240.70;41.23;;;-2.10;94.90;;;;;;6275746;22;20170;-90
2022/03/03 05:12:14;;;;;;;280.00;44.63;;;-2.10;95.00;;;;;;6277525;22;20237;-90
2022/03/03 05:14:40;;;;;;;304.30;48.23;;;-2.10;95.00;;;;;;6276227;22;20178;-89
2022/03/03 05:17:06;;;;;;;204.40;43.80;;;-2.00;95.00;;;;;;6276176;22;20595;-90
2022/03/03 05:19:31;;;;;;;148.07;39.87;;;-2.00;95.00;;;;;;6277170;22;20199;-90
2022/03/03 05:21:57;;;;;;;206.43;39.60;;;-2.00;95.00;;;;;;6276433;22;20267;-88
2022/03/03 05:24:23;;;;;;;290.17;41.17;;;-2.00;95.00;;;;;;6276303;22;20155;-90
2022/03/03 05:26:50;;;;;;;244.03;36.80;;;-2.00;95.00;;;;;;6276293;22;20678;-90
2022/03/03 05:29:16;;;;;;;326.23;38.93;;;-2.00;95.00;;;;;;6277288;22;20262;-89
2022/03/03 05:31:41;;;;;;;283.90;37.07;;;-2.10;95.00;;;;;;6276135;22;20201;-89
2022/03/03 05:34:07;;;;;;;113.57;27.07;;;-2.10;95.00;;;;;;6276583;22;20195;-90
2022/03/03 05:36:38;;;;;;;309.40;36.93;;;-2.10;95.00;;;;;;6276300;22;20206;-90
2022/03/03 05:39:04;;;;;;;256.70;34.43;;;-2.10;95.00;;;;;;6276045;22;20146;-89
2022/03/03 05:41:30;;;;;;;102.83;33.03;;;-2.10;95.00;;;;;;6275984;22;20179;-90
2022/03/03 05:43:57;;;;;;;149.90;32.57;;;-2.10;95.00;;;;;;6276041;22;20631;-90
2022/03/03 05:46:23;;;;;;;117.27;28.50;;;-2.00;95.10;;;;;;6275838;22;20167;-90
2022/03/03 05:48:49;;;;;;;179.67;33.07;;;-2.20;95.00;;;;;;6275668;22;20178;-90
2022/03/03 05:51:15;;;;;;;216.07;32.00;;;-2.30;94.90;;;;;;6275652;22;20228;-89
2022/03/03 05:53:41;;;;;;;81.87;30.80;;;-2.50;94.80;;;;;;6275538;22;20208;-90
2022/03/03 05:56:11;;;;;;;326.07;39.23;;;-2.30;95.00;;;;;;6275830;22;20499;-89
2022/03/03 05:58:47;;;;;;;320.23;38.27;;;-2.30;95.00;;;;;;6275713;22;20149;-90
2022/03/03 06:01:14;;;;;;;241.87;33.83;;;-2.30;95.00;;;;;;6275978;22;20175;-89
2022/03/03 06:03:41;;;;;;;286.97;39.33;;;-2.30;95.00;;;;;;6275531;22;20160;-89
2022/03/03 06:06:16;;;;;;;272.53;36.70;;;-2.30;95.00;;;;;;6275733;22;20179;-90
2022/03/03 06:08:59;;;;;;;239.17;35.07;;;-2.30;95.00;;;;;;6275496;22;20175;-89
2022/03/03 06:11:28;;;;;;;199.40;34.77;;;-2.30;95.00;;;;;;6276329;22;20191;-89
2022/03/03 06:14:04;;;;;;;150.37;35.70;;;-2.30;95.00;;;;;;6275651;22;20154;-89
2022/03/03 06:16:31;;;;;;;171.07;35.53;;;-2.30;95.00;;;;;;6275625;22;20599;-89
2022/03/03 06:18:58;;;;;;;173.63;34.53;;;-2.20;95.00;;;;;;6275549;22;20167;-90
2022/03/03 06:21:25;;;;;;;145.70;34.43;;;-2.20;95.00;;;;;;6275305;22;20191;-89
2022/03/03 06:23:51;;;;;;;68.57;32.33;;;-2.10;95.10;;;;;;6275766;22;20161;-90
2022/03/03 06:26:19;;;;;;;218.37;31.13;;;-2.00;95.10;;;;;;6275540;22;20660;-89
2022/03/03 06:28:45;;;;;;;208.47;35.90;;;-2.10;95.10;;;;;;6275422;22;20524;-89
2022/03/03 06:31:11;;;;;;;84.40;32.07;;;-2.10;95.00;;;;;;6277021;22;20218;-89
2022/03/03 06:33:38;;;;;;;225.33;31.23;;;-2.00;95.10;;;;;;6275849;22;20503;-89
2022/03/03 06:36:05;;;;;;;212.60;35.03;;;-2.00;95.10;;;;;;6275729;22;20151;-88
2022/03/03 06:38:31;;;;;;;73.83;25.77;;;-2.20;95.00;;;;;;6276276;22;20165;-87
2022/03/03 06:40:57;;;;;;;98.57;26.83;;;-2.30;95.00;;;;;;6277384;22;20163;-89
2022/03/03 06:43:24;;;;;;;65.07;21.77;;;-2.40;94.90;;;;;;6278142;22;20228;-89
2022/03/03 06:45:52;;;;;;;54.23;21.97;;;-2.60;94.80;;;;;;6276644;22;20156;-92
2022/03/03 06:48:18;;;;;;;76.27;22.53;;;-2.60;94.80;;;;;;6277552;22;20248;-91
2022/03/03 06:50:44;;;;;;;49.93;17.80;;;-2.60;94.90;;;;;;6277299;22;20156;-89
2022/03/03 06:53:10;;;;;;;26.03;14.03;;;-2.70;94.90;;;;;;6278212;22;20202;-91
2022/03/03 06:55:37;;;;;;;28.57;14.20;;;-2.80;94.90;;;;;;6276360;22;20218;-92
2022/03/03 06:58:03;;;;;;;31.03;15.73;;;-2.80;94.90;;;;;;6276175;22;20182;-91
2022/03/03 07:00:33;;;;;;;44.00;19.37;;;-2.80;94.90;;;;;;6276304;22;20151;-90
2022/03/03 07:03:04;;;;;;;67.03;21.40;;;-2.70;94.90;;;;;;6276240;22;20171;-91
2022/03/03 07:05:30;;;;;;;62.03;22.27;;;-2.60;95.00;;;;;;6276919;22;20174;-91
2022/03/03 07:07:57;;;;;;;76.10;23.40;;;-2.70;95.00;;;;;;6276445;22;20151;-90
2022/03/03 07:10:26;;;;;;;98.63;24.40;;;-2.70;95.00;;;;;;6275613;22;20269;-89
2022/03/03 07:12:54;;;;;;;57.90;21.53;;;-2.70;95.00;;;;;;6276508;22;20170;-90
2022/03/03 07:15:20;;;;;;;96.50;23.77;;;-2.60;95.00;;;;;;6277106;22;20151;-90
2022/03/03 07:17:53;;;;;;;64.20;23.17;;;-2.60;95.00;;;;;;6279042;22;20143;-90
2022/03/03 07:20:46;;;;;;;64.73;23.47;;;-2.60;95.00;;;;;;6278679;22;20153;-91
2022/03/03 07:23:32;;;;;;;55.27;22.33;;;-2.50;95.10;;;;;;6276823;22;20197;-90
2022/03/03 07:26:00;;;;;;;75.10;24.07;;;-2.50;95.10;;;;;;6276938;22;20229;-90
2022/03/03 07:28:28;;;;;;;79.23;25.50;;;-2.50;95.10;;;;;;6276568;22;20178;-90
2022/03/03 07:30:55;;;;;;;100.77;21.93;;;-2.50;95.10;;;;;;6277096;22;20152;-90
2022/03/03 07:33:24;;;;;;;68.13;24.37;;;-2.50;95.10;;;;;;6279960;22;20148;-90
2022/03/03 07:35:55;;;;;;;69.53;23.03;;;-2.50;95.10;;;;;;6278628;22;20155;-90
2022/03/03 07:38:27;;;;;;;64.00;21.23;;;-2.40;95.10;;;;;;6278755;22;20197;-91
2022/03/03 07:40:53;;;;;;;73.87;22.97;;;-2.40;95.10;;;;;;6278281;22;20148;-90
2022/03/03 07:43:19;;;;;;;71.53;24.93;;;-2.30;95.20;;;;;;6278222;22;20195;-90
2022/03/03 07:45:46;;;;;;;43.37;22.53;;;-2.40;95.20;;;;;;6278645;22;20237;-90
2022/03/03 07:48:13;;;;;;;90.57;22.90;;;-2.30;95.20;;;;;;6278051;22;20159;-90
2022/03/03 07:50:39;;;;;;;74.97;23.27;;;-2.20;95.20;;;;;;6280139;22;20197;-91
2022/03/03 07:53:14;;;;;;;63.10;24.17;;;-2.20;95.20;;;;;;6280101;22;20234;-91
2022/03/03 07:55:45;;;;;;;66.60;26.30;;;-2.20;95.20;;;;;;6278154;22;20143;-90
2022/03/03 07:58:16;;;;;;;67.67;25.70;;;-2.20;95.20;;;;;;6280376;22;20268;-91
2022/03/03 08:00:47;;;;;;;44.90;21.40;;;-2.00;95.30;;;;;;6279143;22;20240;-89
2022/03/03 08:03:15;;;;;;;63.17;21.70;;;-2.00;95.30;;;;;;6281247;22;20134;-90
2022/03/03 08:05:43;;;;;;;42.60;20.17;;;-1.90;95.40;;;;;;6280278;22;20214;-91
2022/03/03 08:08:13;;;;;;;70.13;23.60;;;-1.90;95.30;;;;;;6280262;22;20186;-91
2022/03/03 08:10:42;;;;;;;44.27;21.13;;;-1.90;95.40;;;;;;6278062;22;20183;-91
2022/03/03 08:13:11;;;;;;;61.87;24.90;;;-1.90;95.30;;;;;;6279844;22;20565;-90
2022/03/03 08:15:38;;;;;;;67.10;25.23;;;-1.80;95.40;;;;;;6278102;22;20158;-90
2022/03/03 08:18:04;;;;;;;65.13;25.47;;;-1.70;95.40;;;;;;6277941;22;20148;-91
2022/03/03 08:20:33;;;;;;;84.77;28.33;;;-1.70;95.40;;;;;;6278866;22;20187;-90
2022/03/03 08:23:00;;;;;;;80.43;27.27;;;-1.60;95.50;;;;;;6278882;22;20623;-91
2022/03/03 08:25:27;;;;;;;96.90;30.43;;;-1.60;95.50;;;;;;6278606;22;20471;-90
2022/03/03 08:27:54;;;;;;;80.87;27.60;;;-1.60;95.50;;;;;;6278356;22;20614;-91
2022/03/03 08:30:20;;;;;;;86.63;29.33;;;-1.50;95.50;;;;;;6279451;22;20172;-90
2022/03/03 08:33:24;;;;;;;80.20;28.03;;;-1.40;95.50;;;;;;6278835;22;20193;-91
2022/03/03 08:35:59;;;;;;;86.57;24.47;;;-1.40;95.50;;;;;;6265518;22;20247;-91
2022/03/03 08:38:34;;;;;;;72.00;26.47;;;-1.30;95.50;;;;;;6277402;22;20145;-91
2022/03/03 08:41:01;;;;;;;86.17;24.03;;;-1.30;95.50;;;;;;6280346;22;20446;-91
2022/03/03 08:43:28;;;;;;;75.17;25.83;;;-1.20;95.50;;;;;;6277443;22;20154;-91
2022/03/03 08:46:04;;;;;;;65.20;25.60;;;-1.10;95.50;;;;;;6277736;22;20161;-91
2022/03/03 08:48:32;;;;;;;74.27;24.47;;;-1.10;95.50;;;;;;6278733;22;20188;-90
2022/03/03 08:50:59;;;;;;;79.27;26.17;;;-1.00;95.50;;;;;;6277524;22;20155;-91
2022/03/03 08:53:25;;;;;;;78.00;26.43;;;-1.10;95.50;;;;;;6277539;22;20158;-90
2022/03/03 08:55:51;;;;;;;66.50;24.13;;;-0.90;95.60;;;;;;6277468;22;20609;-90
2022/03/03 08:58:16;;;;;;;82.23;28.43;;;-0.90;95.60;;;;;;6277949;22;20610;-90
2022/03/03 09:00:43;;;;;;;85.47;26.07;;;-0.80;95.60;;;;;;6277656;22;20151;-91
2022/03/03 09:03:08;;;;;;;94.27;22.87;;;-0.90;95.60;;;;;;6277134;22;20634;-90
2022/03/03 09:05:35;;;;;;;84.50;21.60;;;-0.80;95.60;;;;;;6276874;22;20175;-91
2022/03/03 09:08:00;;;;;;;86.23;21.97;;;-0.80;95.60;;;;;;6277481;22;20648;-91
2022/03/03 09:10:26;;;;;;;140.17;22.27;;;-0.60;95.60;;;;;;6276866;22;20216;-90
2022/03/03 09:12:51;;;;;;;76.23;21.87;;;-0.60;95.60;;;;;;6277203;22;20171;-90
2022/03/03 09:15:17;;;;;;;95.20;24.20;;;-0.60;95.60;;;;;;6277612;22;20160;-91
2022/03/03 09:17:43;;;;;;;64.10;23.63;;;-0.70;95.60;;;;;;6277122;22;20168;-91
2022/03/03 09:20:13;;;;;;;93.27;23.00;;;-0.60;95.60;;;;;;6277523;22;20237;-89
2022/03/03 09:22:39;;;;;;;96.70;21.27;;;-0.50;95.60;;;;;;6279181;22;20577;-91
2022/03/03 09:25:06;;;;;;;72.10;22.47;;;-0.50;95.60;;;;;;6285240;22;20158;-92
2022/03/03 09:27:31;;;;;;;42.00;20.53;;;-0.40;95.70;;;;;;6281771;22;20155;-90
2022/03/03 09:29:57;;;;;;;74.43;22.50;;;-0.40;95.70;;;;;;6276015;22;20186;-90
2022/03/03 09:32:23;;;;;;;57.77;20.20;;;-0.40;95.60;;;;;;6277995;22;20173;-91
2022/03/03 09:34:48;;;;;;;54.57;19.93;;;-0.40;95.70;;;;;;6278426;22;20161;-91
2022/03/03 09:37:14;;;;;;;59.67;19.43;;;-0.40;95.70;;;;;;6280604;22;20142;-92
2022/03/03 09:39:40;;;;;;;69.30;19.90;;;-0.30;95.70;;;;;;6287514;22;20139;-92
2022/03/03 09:42:09;;;;;;;42.83;18.97;;;-0.30;95.70;;;;;;6290511;22;20170;-92
2022/03/03 09:44:35;;;;;;;71.17;20.67;;;-0.30;95.70;;;;;;6295666;22;20233;-91
2022/03/03 09:47:01;;;;;;;60.17;19.57;;;-0.30;95.70;;;;;;6296514;22;20150;-91
2022/03/03 09:49:27;;;;;;;38.13;19.43;;;-0.30;95.70;;;;;;6304153;22;20187;-93
2022/03/03 09:51:59;;;;;;;35.60;19.23;;;-0.30;95.70;;;;;;6304461;22;20239;-90
2022/03/03 09:54:24;;;;;;;52.77;17.47;;;-0.20;95.70;;;;;;6304658;22;20169;-92
2022/03/03 09:56:53;;;;;;;57.83;19.43;;;-0.20;95.70;;;;;;6305395;22;20146;-92
2022/03/03 09:59:19;;;;;;;44.97;15.57;;;-0.20;95.70;;;;;;6304972;22;20131;-91
2022/03/03 10:01:48;;;;;;;75.20;18.20;;;-0.10;95.70;;;;;;6305150;22;20163;-92
2022/03/03 10:04:17;;;;;;;72.93;21.20;;;-0.10;95.70;;;;;;6305118;22;20147;-93
2022/03/03 10:06:43;;;;;;;62.40;16.53;;;-0.10;95.70;;;;;;6305588;22;20166;-91
2022/03/03 10:09:16;;;;;;;42.03;15.63;;;-0.10;95.70;;;;;;6305270;22;20249;-92
2022/03/03 10:12:00;;;;;;;62.50;16.40;;;0.00;95.70;;;;;;6304520;22;20194;-92
2022/03/03 10:14:35;;;;;;;63.93;15.83;;;-0.10;95.70;;;;;;6305385;22;20190;-90
2022/03/03 10:17:02;;;;;;;44.30;13.87;;;0.00;95.70;;;;;;6305463;22;20154;-92
2022/03/03 10:19:48;;;;;;;74.60;17.50;;;0.00;95.70;;;;;;6305019;22;20155;-94
2022/03/03 10:22:17;;;;;;;52.80;15.30;;;0.10;95.80;;;;;;6305143;22;20171;-91
2022/03/03 10:24:45;;;;;;;35.10;15.00;;;0.00;95.80;;;;;;6305287;22;20194;-90
2022/03/03 10:27:18;;;;;;;36.33;14.53;;;0.10;95.80;;;;;;6305165;22;20138;-91
2022/03/03 10:29:47;;;;;;;35.87;12.80;;;0.20;95.80;;;;;;6305043;22;20179;-92
2022/03/03 10:32:26;;;;;;;32.17;14.97;;;0.30;95.80;;;;;;6304804;22;20171;-93
2022/03/03 10:35:01;;;;;;;50.03;14.07;;;0.20;95.80;;;;;;6305057;22;20161;-90
2022/03/03 10:40:47;;;;;;;33.47;15.77;;;0.20;95.80;;;;;;6246430;22;20211;-90
2022/03/03 10:43:13;;;;;;;44.03;16.27;;;0.30;95.80;;;;;;6299449;22;20151;-92
2022/03/03 10:45:59;;;;;;;34.17;14.53;;;0.40;95.80;;;;;;6285861;22;20583;-92
2022/03/03 10:48:27;;;;;;;26.77;14.20;;;0.40;95.80;;;;;;6293800;22;20173;-92
2022/03/03 10:50:54;;;;;;;29.27;14.63;;;0.40;95.80;;;;;;6284666;22;20153;-92
2022/03/03 10:53:23;;;;;;;20.43;10.83;;;0.40;95.80;;;;;;6285196;22;20155;-92
2022/03/03 10:56:12;;;;;;;22.53;12.63;;;0.40;95.80;;;;;;6283177;22;20159;-92
2022/03/03 10:58:58;;;;;;;20.60;11.67;;;0.50;95.80;;;;;;6294463;22;20199;-93
2022/03/03 11:01:27;;;;;;;29.17;15.73;;;0.50;95.80;;;;;;6303992;22;20167;-92
2022/03/03 11:04:00;;;;;;;30.00;14.77;;;0.60;95.80;;;;;;6297124;22;20148;-93
2022/03/03 11:06:35;;;;;;;24.30;13.97;;;0.80;95.80;;;;;;6296375;22;20163;-94
2022/03/03 11:09:05;;;;;;;25.77;13.80;;;0.70;95.80;;;;;;6306457;22;20166;-92
2022/03/03 11:11:33;;;;;;;27.70;15.47;;;0.90;95.80;;;;;;6306905;22;20164;-93
2022/03/03 11:13:59;;;;;;;25.57;13.10;;;0.90;95.80;;;;;;6301389;22;20202;-93
2022/03/03 11:16:31;;;;;;;25.90;14.80;;;0.90;95.80;;;;;;6297030;22;20166;-94
2022/03/03 11:18:57;;;;;;;25.93;16.10;;;0.90;95.80;;;;;;6300816;22;20156;-94
2022/03/03 11:21:23;;;;;;;28.00;14.17;;;1.00;95.80;;;;;;6306308;22;20180;-89
2022/03/03 11:23:58;;;;;;;24.73;14.20;;;1.00;95.70;;;;;;6306440;22;20139;-91
2022/03/03 11:26:42;;;;;;;29.10;14.13;;;1.00;95.70;;;;;;6304091;22;20151;-92
2022/03/03 11:29:12;;;;;;;29.83;14.53;;;1.00;95.70;;;;;;6306263;22;20172;-93
2022/03/03 11:31:42;;;;;;;26.43;14.13;;;1.00;95.60;;;;;;6306796;22;20166;-94
2022/03/03 11:45:15;;;;;;;28.07;16.67;;;1.30;95.40;;;;;;6350750;22;20184;-91
2022/03/03 11:48:10;;;;;;;27.03;16.33;;;1.30;95.30;;;;;;6332335;22;20152;-95
2022/03/03 11:50:36;;;;;;;29.20;15.17;;;1.30;95.30;;;;;;6343013;22;20150;-91
2022/03/03 11:58:16;;;;;;;28.03;14.27;;;1.70;95.20;;;;;;6335972;22;20176;-91
2022/03/03 12:01:08;;;;;;;31.53;17.07;;;1.60;95.00;;;;;;6336807;22;20153;-91
2022/03/03 12:03:58;;;;;;;31.17;16.07;;;1.60;94.80;;;;;;6280069;22;20196;-92
2022/03/03 12:06:43;;;;;;;27.63;14.87;;;1.60;94.80;;;;;;6300332;22;20145;-91
2022/03/03 12:09:26;;;;;;;29.70;16.30;;;1.70;94.50;;;;;;6264731;22;20190;-91
2022/03/03 12:12:16;;;;;;;30.87;17.27;;;1.80;94.50;;;;;;6290532;22;20187;-91
2022/03/03 12:14:58;;;;;;;32.60;16.83;;;1.90;94.40;;;;;;6259154;22;20150;-91
2022/03/03 12:17:33;;;;;;;22.57;11.77;;;2.00;94.20;;;;;;6264437;22;20141;-90
2022/03/03 12:20:24;;;;;;;17.47;11.03;;;2.10;94.10;;;;;;6289787;22;20153;-91
2022/03/03 12:25:50;;;;;;;23.87;12.97;;;2.30;93.40;;;;;;6325536;22;20222;-92
2022/03/03 12:29:06;;;;;;;14.10;9.43;;;2.60;93.30;;;;;;6319292;22;20152;-92
2022/03/03 12:31:41;;;;;;;14.80;10.60;;;3.00;92.80;;;;;;6177606;23;20210;-92
2022/03/03 12:34:08;;;;;;;16.73;10.50;;;3.20;91.50;;;;;;6308320;22;20143;-92
2022/03/03 12:36:36;;;;;;;14.57;9.07;;;3.30;91.00;;;;;;6300858;22;20180;-92
2022/03/03 12:49:39;;;;;;;13.60;9.50;;;3.20;88.90;;;;;;6332374;22;20208;-92
2022/03/03 12:52:06;;;;;;;13.10;9.20;;;2.90;88.60;;;;;;6333309;22;20189;-92
2022/03/03 12:54:31;;;;;;;16.47;9.53;;;2.90;89.10;;;;;;6324051;22;20479;-91
2022/03/03 12:59:33;;;;;;;12.30;8.30;;;3.20;88.80;;;;;;6328124;22;20170;-92
2022/03/03 13:01:59;;;;;;;14.97;8.53;;;3.20;88.50;;;;;;6299567;22;20185;-91
2022/03/03 13:04:25;;;;;;;14.37;9.63;;;3.10;87.50;;;;;;6306080;22;20156;-91
2022/03/03 13:07:14;;;;;;;14.70;8.93;;;3.20;87.90;;;;;;6307113;22;20220;-92